sensor_id;sensor_type;location;lat;lon;timestamp;temperature;humidity
71212;DHT22;58957;37.742;-0.742;2023-01-28T00:00:21;9.70;99.90
71212;DHT22;58957;37.742;-0.742;2023-01-28T00:02:48;9.80;99.90
71212;DHT22;58957;37.742;-0.742;2023-01-28T00:05:15;9.80;99.90
71212;DHT22;58957;37.742;-0.742;2023-01-28T00:07:42;9.80;99.90
71212;DHT22;58957;37.742;-0.742;2023-01-28T00:10:10;9.80;99.90
71212;DHT22;58957;37.742;-0.742;2023-01-28T00:12:37;9.80;99.90
71212;DHT22;58957;37.742;-0.742;2023-01-28T00:15:10;9.90;99.90
71212;DHT22;58957;37.742;-0.742;2023-01-28T00:17:37;9.90;99.90
71212;DHT22;58957;37.742;-0.742;2023-01-28T00:20:05;9.90;99.90
71212;DHT22;58957;37.742;-0.742;2023-01-28T00:22:32;9.80;99.90
71212;DHT22;58957;37.742;-0.742;2023-01-28T00:25:00;9.70;99.90
71212;DHT22;58957;37.742;-0.742;2023-01-28T00:27:27;9.50;99.90
71212;DHT22;58957;37.742;-0.742;2023-01-28T00:29:54;9.50;99.90
71212;DHT22;58957;37.742;-0.742;2023-01-28T00:32:22;9.50;99.90
71212;DHT22;58957;37.742;-0.742;2023-01-28T00:34:49;9.50;99.90
71212;DHT22;58957;37.742;-0.742;2023-01-28T00:37:16;9.50;99.90
71212;DHT22;58957;37.742;-0.742;2023-01-28T00:39:43;9.40;99.90
71212;DHT22;58957;37.742;-0.742;2023-01-28T00:42:11;9.40;99.90
71212;DHT22;58957;37.742;-0.742;2023-01-28T00:44:38;9.40;99.90
71212;DHT22;58957;37.742;-0.742;2023-01-28T00:47:05;9.40;99.90
71212;DHT22;58957;37.742;-0.742;2023-01-28T00:49:33;9.50;99.90
71212;DHT22;58957;37.742;-0.742;2023-01-28T00:52:00;9.50;99.90
71212;DHT22;58957;37.742;-0.742;2023-01-28T00:54:28;9.60;99.90
71212;DHT22;58957;37.742;-0.742;2023-01-28T00:56:56;9.70;99.90
71212;DHT22;58957;37.742;-0.742;2023-01-28T00:59:24;9.90;99.90
71212;DHT22;58957;37.742;-0.742;2023-01-28T01:01:52;10.00;99.90
71212;DHT22;58957;37.742;-0.742;2023-01-28T01:04:19;10.20;99.90
71212;DHT22;58957;37.742;-0.742;2023-01-28T01:06:52;10.30;99.90
71212;DHT22;58957;37.742;-0.742;2023-01-28T01:09:19;10.40;99.90
71212;DHT22;58957;37.742;-0.742;2023-01-28T01:11:47;10.40;99.90
71212;DHT22;58957;37.742;-0.742;2023-01-28T01:14:14;10.30;99.90
71212;DHT22;58957;37.742;-0.742;2023-01-28T01:16:41;10.30;99.90
71212;DHT22;58957;37.742;-0.742;2023-01-28T01:19:08;10.40;99.90
71212;DHT22;58957;37.742;-0.742;2023-01-28T01:21:36;10.30;99.90
71212;DHT22;58957;37.742;-0.742;2023-01-28T01:24:05;10.20;99.90
71212;DHT22;58957;37.742;-0.742;2023-01-28T01:26:32;10.20;99.90
71212;DHT22;58957;37.742;-0.742;2023-01-28T01:28:59;10.20;99.90
71212;DHT22;58957;37.742;-0.742;2023-01-28T01:31:26;10.20;99.90
71212;DHT22;58957;37.742;-0.742;2023-01-28T01:33:53;10.20;99.90
71212;DHT22;58957;37.742;-0.742;2023-01-28T01:36:20;10.20;99.90
71212;DHT22;58957;37.742;-0.742;2023-01-28T01:38:52;10.20;99.90
71212;DHT22;58957;37.742;-0.742;2023-01-28T01:41:27;10.20;99.90
71212;DHT22;58957;37.742;-0.742;2023-01-28T01:43:56;10.20;99.90
71212;DHT22;58957;37.742;-0.742;2023-01-28T01:46:29;10.20;99.90
71212;DHT22;58957;37.742;-0.742;2023-01-28T01:49:02;10.30;99.90
71212;DHT22;58957;37.742;-0.742;2023-01-28T01:51:33;10.30;99.90
71212;DHT22;58957;37.742;-0.742;2023-01-28T01:54:02;10.20;99.90
71212;DHT22;58957;37.742;-0.742;2023-01-28T01:56:36;10.30;99.90
71212;DHT22;58957;37.742;-0.742;2023-01-28T01:59:08;10.30;99.90
71212;DHT22;58957;37.742;-0.742;2023-01-28T02:01:38;10.30;99.90
71212;DHT22;58957;37.742;-0.742;2023-01-28T02:04:09;10.30;99.90
71212;DHT22;58957;37.742;-0.742;2023-01-28T02:06:39;10.30;99.90
71212;DHT22;58957;37.742;-0.742;2023-01-28T02:09:19;10.30;99.90
71212;DHT22;58957;37.742;-0.742;2023-01-28T02:11:49;10.30;99.90
71212;DHT22;58957;37.742;-0.742;2023-01-28T02:14:17;10.30;99.90
71212;DHT22;58957;37.742;-0.742;2023-01-28T02:16:45;10.30;99.90
71212;DHT22;58957;37.742;-0.742;2023-01-28T02:19:13;10.20;99.90
71212;DHT22;58957;37.742;-0.742;2023-01-28T02:22:00;10.30;99.90
71212;DHT22;58957;37.742;-0.742;2023-01-28T02:25:11;10.30;99.90
71212;DHT22;58957;37.742;-0.742;2023-01-28T02:28:00;10.30;99.90
71212;DHT22;58957;37.742;-0.742;2023-01-28T02:30:35;10.30;99.90
71212;DHT22;58957;37.742;-0.742;2023-01-28T02:33:08;10.30;99.90
71212;DHT22;58957;37.742;-0.742;2023-01-28T02:35:41;10.40;99.90
71212;DHT22;58957;37.742;-0.742;2023-01-28T02:38:16;10.20;99.90
71212;DHT22;58957;37.742;-0.742;2023-01-28T02:40:49;10.10;99.90
71212;DHT22;58957;37.742;-0.742;2023-01-28T02:43:37;10.00;99.90
71212;DHT22;58957;37.742;-0.742;2023-01-28T02:46:14;10.00;99.90
71212;DHT22;58957;37.742;-0.742;2023-01-28T02:49:00;10.00;99.90
71212;DHT22;58957;37.742;-0.742;2023-01-28T02:51:36;9.90;99.90
71212;DHT22;58957;37.742;-0.742;2023-01-28T02:54:11;9.90;99.90
71212;DHT22;58957;37.742;-0.742;2023-01-28T02:56:41;9.80;99.90
71212;DHT22;58957;37.742;-0.742;2023-01-28T02:59:19;9.80;99.90
71212;DHT22;58957;37.742;-0.742;2023-01-28T03:02:11;9.80;99.90
71212;DHT22;58957;37.742;-0.742;2023-01-28T03:04:45;9.70;99.90
71212;DHT22;58957;37.742;-0.742;2023-01-28T03:07:15;9.60;99.90
71212;DHT22;58957;37.742;-0.742;2023-01-28T03:09:45;9.50;99.90
71212;DHT22;58957;37.742;-0.742;2023-01-28T03:12:15;9.50;99.90
71212;DHT22;58957;37.742;-0.742;2023-01-28T03:15:08;9.50;99.90
71212;DHT22;58957;37.742;-0.742;2023-01-28T03:17:59;9.40;99.90
71212;DHT22;58957;37.742;-0.742;2023-01-28T03:20:49;9.40;99.90
71212;DHT22;58957;37.742;-0.742;2023-01-28T03:23:40;9.40;99.90
71212;DHT22;58957;37.742;-0.742;2023-01-28T03:26:27;9.40;99.90
71212;DHT22;58957;37.742;-0.742;2023-01-28T03:29:14;9.40;99.90
71212;DHT22;58957;37.742;-0.742;2023-01-28T03:32:00;9.30;99.90
71212;DHT22;58957;37.742;-0.742;2023-01-28T03:34:45;9.20;99.90
71212;DHT22;58957;37.742;-0.742;2023-01-28T03:37:31;9.20;99.90
71212;DHT22;58957;37.742;-0.742;2023-01-28T03:40:02;9.30;99.90
71212;DHT22;58957;37.742;-0.742;2023-01-28T03:42:31;9.30;99.90
71212;DHT22;58957;37.742;-0.742;2023-01-28T03:44:58;9.30;99.90
71212;DHT22;58957;37.742;-0.742;2023-01-28T03:47:31;9.30;99.90
71212;DHT22;58957;37.742;-0.742;2023-01-28T03:49:58;9.30;99.90
71212;DHT22;58957;37.742;-0.742;2023-01-28T03:52:27;9.30;99.90
71212;DHT22;58957;37.742;-0.742;2023-01-28T03:54:55;9.30;99.90
71212;DHT22;58957;37.742;-0.742;2023-01-28T03:57:24;9.30;99.90
71212;DHT22;58957;37.742;-0.742;2023-01-28T03:59:52;9.20;99.90
71212;DHT22;58957;37.742;-0.742;2023-01-28T04:02:20;9.10;99.90
71212;DHT22;58957;37.742;-0.742;2023-01-28T04:04:49;9.20;99.90
71212;DHT22;58957;37.742;-0.742;2023-01-28T04:07:17;9.20;99.90
71212;DHT22;58957;37.742;-0.742;2023-01-28T04:09:44;9.20;99.90
71212;DHT22;58957;37.742;-0.742;2023-01-28T04:12:11;9.10;99.90
71212;DHT22;58957;37.742;-0.742;2023-01-28T04:14:38;9.00;99.90
71212;DHT22;58957;37.742;-0.742;2023-01-28T04:17:06;9.00;99.90
71212;DHT22;58957;37.742;-0.742;2023-01-28T04:19:35;9.00;99.90
71212;DHT22;58957;37.742;-0.742;2023-01-28T04:22:06;9.00;99.90
71212;DHT22;58957;37.742;-0.742;2023-01-28T04:24:33;8.90;99.90
71212;DHT22;58957;37.742;-0.742;2023-01-28T04:27:01;8.80;99.90
71212;DHT22;58957;37.742;-0.742;2023-01-28T04:29:28;8.80;99.90
71212;DHT22;58957;37.742;-0.742;2023-01-28T04:31:56;8.70;99.90
71212;DHT22;58957;37.742;-0.742;2023-01-28T04:34:23;8.80;99.90
71212;DHT22;58957;37.742;-0.742;2023-01-28T04:36:50;8.80;99.90
71212;DHT22;58957;37.742;-0.742;2023-01-28T04:39:18;8.80;99.90
71212;DHT22;58957;37.742;-0.742;2023-01-28T04:41:45;8.80;99.90
71212;DHT22;58957;37.742;-0.742;2023-01-28T04:44:13;8.90;99.90
71212;DHT22;58957;37.742;-0.742;2023-01-28T04:46:41;8.80;99.90
71212;DHT22;58957;37.742;-0.742;2023-01-28T04:49:08;8.90;99.90
71212;DHT22;58957;37.742;-0.742;2023-01-28T04:51:36;8.90;99.90
71212;DHT22;58957;37.742;-0.742;2023-01-28T04:54:03;8.80;99.90
71212;DHT22;58957;37.742;-0.742;2023-01-28T04:56:31;8.80;99.90
71212;DHT22;58957;37.742;-0.742;2023-01-28T04:58:58;8.80;99.90
71212;DHT22;58957;37.742;-0.742;2023-01-28T05:01:26;8.70;99.90
71212;DHT22;58957;37.742;-0.742;2023-01-28T05:03:53;8.60;99.90
71212;DHT22;58957;37.742;-0.742;2023-01-28T05:06:20;8.60;99.90
71212;DHT22;58957;37.742;-0.742;2023-01-28T05:08:48;8.60;99.90
71212;DHT22;58957;37.742;-0.742;2023-01-28T05:11:15;8.50;99.90
71212;DHT22;58957;37.742;-0.742;2023-01-28T05:13:43;8.50;99.90
71212;DHT22;58957;37.742;-0.742;2023-01-28T05:16:10;8.50;99.90
71212;DHT22;58957;37.742;-0.742;2023-01-28T05:18:38;8.50;99.90
71212;DHT22;58957;37.742;-0.742;2023-01-28T05:21:05;8.50;99.90
71212;DHT22;58957;37.742;-0.742;2023-01-28T05:23:32;8.50;99.90
71212;DHT22;58957;37.742;-0.742;2023-01-28T05:25:59;8.50;99.90
71212;DHT22;58957;37.742;-0.742;2023-01-28T05:28:26;8.50;99.90
71212;DHT22;58957;37.742;-0.742;2023-01-28T05:30:55;8.50;99.90
71212;DHT22;58957;37.742;-0.742;2023-01-28T05:33:22;8.50;99.90
71212;DHT22;58957;37.742;-0.742;2023-01-28T05:35:49;8.50;99.90
71212;DHT22;58957;37.742;-0.742;2023-01-28T05:38:16;8.50;99.90
71212;DHT22;58957;37.742;-0.742;2023-01-28T05:40:43;8.50;99.90
71212;DHT22;58957;37.742;-0.742;2023-01-28T05:43:11;8.50;99.90
71212;DHT22;58957;37.742;-0.742;2023-01-28T05:45:38;8.50;99.90
71212;DHT22;58957;37.742;-0.742;2023-01-28T05:48:06;8.50;99.90
71212;DHT22;58957;37.742;-0.742;2023-01-28T05:50:34;8.50;99.90
71212;DHT22;58957;37.742;-0.742;2023-01-28T05:53:04;8.50;99.90
71212;DHT22;58957;37.742;-0.742;2023-01-28T05:55:31;8.50;99.90
71212;DHT22;58957;37.742;-0.742;2023-01-28T05:57:58;8.50;99.90
71212;DHT22;58957;37.742;-0.742;2023-01-28T06:00:25;8.60;99.90
71212;DHT22;58957;37.742;-0.742;2023-01-28T06:02:53;8.60;99.90
71212;DHT22;58957;37.742;-0.742;2023-01-28T06:05:21;8.60;99.90
71212;DHT22;58957;37.742;-0.742;2023-01-28T06:07:49;8.60;99.90
71212;DHT22;58957;37.742;-0.742;2023-01-28T06:10:16;8.60;99.90
71212;DHT22;58957;37.742;-0.742;2023-01-28T06:12:43;8.60;99.90
71212;DHT22;58957;37.742;-0.742;2023-01-28T06:15:11;8.60;99.90
71212;DHT22;58957;37.742;-0.742;2023-01-28T06:17:38;8.60;99.90
71212;DHT22;58957;37.742;-0.742;2023-01-28T06:20:06;8.60;99.90
71212;DHT22;58957;37.742;-0.742;2023-01-28T06:22:35;8.60;99.90
71212;DHT22;58957;37.742;-0.742;2023-01-28T06:25:03;8.60;99.90
71212;DHT22;58957;37.742;-0.742;2023-01-28T06:27:30;8.60;99.90
71212;DHT22;58957;37.742;-0.742;2023-01-28T06:29:57;8.60;99.90
71212;DHT22;58957;37.742;-0.742;2023-01-28T06:32:24;8.70;99.90
71212;DHT22;58957;37.742;-0.742;2023-01-28T06:34:51;8.60;99.90
71212;DHT22;58957;37.742;-0.742;2023-01-28T06:37:19;8.60;99.90
71212;DHT22;58957;37.742;-0.742;2023-01-28T06:39:47;8.60;99.90
71212;DHT22;58957;37.742;-0.742;2023-01-28T06:42:14;8.50;99.90
71212;DHT22;58957;37.742;-0.742;2023-01-28T06:44:41;8.50;99.90
71212;DHT22;58957;37.742;-0.742;2023-01-28T06:47:08;8.40;99.90
71212;DHT22;58957;37.742;-0.742;2023-01-28T06:49:36;8.40;99.90
71212;DHT22;58957;37.742;-0.742;2023-01-28T06:52:03;8.40;99.90
71212;DHT22;58957;37.742;-0.742;2023-01-28T06:54:31;8.40;99.90
71212;DHT22;58957;37.742;-0.742;2023-01-28T06:56:59;8.40;99.90
71212;DHT22;58957;37.742;-0.742;2023-01-28T06:59:26;8.30;99.90
71212;DHT22;58957;37.742;-0.742;2023-01-28T07:01:53;8.30;99.90
71212;DHT22;58957;37.742;-0.742;2023-01-28T07:04:20;8.30;99.90
71212;DHT22;58957;37.742;-0.742;2023-01-28T07:06:48;8.30;99.90
71212;DHT22;58957;37.742;-0.742;2023-01-28T07:09:15;8.30;99.90
71212;DHT22;58957;37.742;-0.742;2023-01-28T07:11:42;8.30;99.90
71212;DHT22;58957;37.742;-0.742;2023-01-28T07:14:10;8.30;99.90
71212;DHT22;58957;37.742;-0.742;2023-01-28T07:16:37;8.30;99.50
71212;DHT22;58957;37.742;-0.742;2023-01-28T07:19:04;8.30;99.90
71212;DHT22;58957;37.742;-0.742;2023-01-28T07:21:32;8.40;99.90
71212;DHT22;58957;37.742;-0.742;2023-01-28T07:23:59;8.50;99.90
71212;DHT22;58957;37.742;-0.742;2023-01-28T07:26:26;8.40;99.90
71212;DHT22;58957;37.742;-0.742;2023-01-28T07:28:54;8.30;99.10
71212;DHT22;58957;37.742;-0.742;2023-01-28T07:31:22;8.40;99.50
71212;DHT22;58957;37.742;-0.742;2023-01-28T07:33:49;8.40;99.80
71212;DHT22;58957;37.742;-0.742;2023-01-28T07:36:16;8.50;99.90
71212;DHT22;58957;37.742;-0.742;2023-01-28T07:38:43;8.50;98.90
71212;DHT22;58957;37.742;-0.742;2023-01-28T07:41:12;8.40;99.90
71212;DHT22;58957;37.742;-0.742;2023-01-28T07:43:39;8.50;99.70
71212;DHT22;58957;37.742;-0.742;2023-01-28T07:46:08;8.50;99.20
71212;DHT22;58957;37.742;-0.742;2023-01-28T07:48:36;8.60;98.40
71212;DHT22;58957;37.742;-0.742;2023-01-28T07:51:03;8.70;99.00
71212;DHT22;58957;37.742;-0.742;2023-01-28T07:53:31;8.60;98.00
71212;DHT22;58957;37.742;-0.742;2023-01-28T07:55:59;8.70;99.00
71212;DHT22;58957;37.742;-0.742;2023-01-28T07:58:26;8.80;98.50
71212;DHT22;58957;37.742;-0.742;2023-01-28T08:00:56;8.80;98.50
71212;DHT22;58957;37.742;-0.742;2023-01-28T08:03:24;8.80;99.00
71212;DHT22;58957;37.742;-0.742;2023-01-28T08:05:54;8.90;99.00
71212;DHT22;58957;37.742;-0.742;2023-01-28T08:08:22;8.80;98.10
71212;DHT22;58957;37.742;-0.742;2023-01-28T08:10:49;8.80;98.20
71212;DHT22;58957;37.742;-0.742;2023-01-28T08:13:18;8.90;98.30
71212;DHT22;58957;37.742;-0.742;2023-01-28T08:15:45;9.00;98.90
71212;DHT22;58957;37.742;-0.742;2023-01-28T08:18:14;9.00;99.50
71212;DHT22;58957;37.742;-0.742;2023-01-28T08:20:42;9.00;98.30
71212;DHT22;58957;37.742;-0.742;2023-01-28T08:23:15;9.00;98.90
71212;DHT22;58957;37.742;-0.742;2023-01-28T08:25:42;9.10;98.30
71212;DHT22;58957;37.742;-0.742;2023-01-28T08:28:10;9.20;98.60
71212;DHT22;58957;37.742;-0.742;2023-01-28T08:30:38;9.30;99.30
71212;DHT22;58957;37.742;-0.742;2023-01-28T08:33:06;9.30;98.80
71212;DHT22;58957;37.742;-0.742;2023-01-28T08:35:34;9.30;98.60
71212;DHT22;58957;37.742;-0.742;2023-01-28T08:38:02;9.40;99.70
71212;DHT22;58957;37.742;-0.742;2023-01-28T08:40:32;9.40;99.50
71212;DHT22;58957;37.742;-0.742;2023-01-28T08:42:59;9.40;99.90
71212;DHT22;58957;37.742;-0.742;2023-01-28T08:45:27;9.60;99.90
71212;DHT22;58957;37.742;-0.742;2023-01-28T08:47:56;9.60;99.90
71212;DHT22;58957;37.742;-0.742;2023-01-28T08:50:25;9.60;98.20
71212;DHT22;58957;37.742;-0.742;2023-01-28T08:52:56;9.50;99.90
71212;DHT22;58957;37.742;-0.742;2023-01-28T08:55:25;9.40;99.90
71212;DHT22;58957;37.742;-0.742;2023-01-28T08:57:54;9.50;99.90
71212;DHT22;58957;37.742;-0.742;2023-01-28T09:00:21;9.50;99.90
71212;DHT22;58957;37.742;-0.742;2023-01-28T09:02:50;9.40;99.90
71212;DHT22;58957;37.742;-0.742;2023-01-28T09:05:18;9.60;99.90
71212;DHT22;58957;37.742;-0.742;2023-01-28T09:07:45;9.70;99.90
